KGTB

Wheeler-Sack AAF Airport

Fort Drum, New York, USA
METAR KGTB 182256Z AUTO 06007KT 10SM CLR 21/18 A2994 RMK AO2 DZB23E31DZB42E45 SLP137 P0000 T02110175 TSNO $
Observed Flight Rules
Aug-18 @ 22:56 UTC (48 minutes ago) Visual Flight Rules
Wind Visibility Clouds
60° at 7 knots 10 miles
  • Clear skies
Temperatures Readings Precipitation
Current 21°C / 70°F
Dewpoint 18°C / 64°F
Humidity 83%
Altimeter 29.94" Hg
Pressure 1013.7 hPa
Elevation 207
Current Rain 0.005
METAR KGTB 182256Z AUTO 06007KT 10SM CLR 21/18 A2994 RMK AO2 DZB23E31DZB42E45 SLP137 P0000 T02110175 TSNO $
Observed Flight Rules
Aug-18 @ 22:56 UTC
(48 minutes ago)
VFR
Wind Visibility
60° at 7 knots 10 miles
Clouds
  • Clear skies
Temperature Dewpoint
21°C / 70°F 18°C / 64°F
Humidity Altimeter Pressure
83% 29.94" Hg 1013.7 hPa
Current Rain
0.005